sensor_id;sensor_type;location;lat;lon;timestamp;temperature;humidity
3275;DHT22;1649;53.672;10.064;2023-04-24T00:01:23;11.80;99.90
3275;DHT22;1649;53.672;10.064;2023-04-24T00:03:49;11.80;99.90
3275;DHT22;1649;53.672;10.064;2023-04-24T00:06:14;11.70;99.90
3275;DHT22;1649;53.672;10.064;2023-04-24T00:08:42;11.70;99.90
3275;DHT22;1649;53.672;10.064;2023-04-24T00:11:08;11.70;99.90
3275;DHT22;1649;53.672;10.064;2023-04-24T00:13:34;11.60;99.90
3275;DHT22;1649;53.672;10.064;2023-04-24T00:16:00;11.60;99.90
3275;DHT22;1649;53.672;10.064;2023-04-24T00:18:26;11.60;99.90
3275;DHT22;1649;53.672;10.064;2023-04-24T00:20:51;11.60;99.90
3275;DHT22;1649;53.672;10.064;2023-04-24T00:23:17;11.50;99.90
3275;DHT22;1649;53.672;10.064;2023-04-24T00:25:42;11.50;99.90
3275;DHT22;1649;53.672;10.064;2023-04-24T00:28:08;11.50;99.90
3275;DHT22;1649;53.672;10.064;2023-04-24T00:30:33;11.40;99.90
3275;DHT22;1649;53.672;10.064;2023-04-24T00:32:59;11.40;99.90
3275;DHT22;1649;53.672;10.064;2023-04-24T00:35:24;11.40;99.90
3275;DHT22;1649;53.672;10.064;2023-04-24T00:37:50;11.40;99.90
3275;DHT22;1649;53.672;10.064;2023-04-24T00:40:15;11.40;99.90
3275;DHT22;1649;53.672;10.064;2023-04-24T00:42:41;11.40;99.90
3275;DHT22;1649;53.672;10.064;2023-04-24T00:45:07;11.40;99.90
3275;DHT22;1649;53.672;10.064;2023-04-24T00:47:33;11.30;99.90
3275;DHT22;1649;53.672;10.064;2023-04-24T00:50:03;11.30;99.90
3275;DHT22;1649;53.672;10.064;2023-04-24T00:52:29;11.40;99.90
3275;DHT22;1649;53.672;10.064;2023-04-24T00:54:57;11.40;99.90
3275;DHT22;1649;53.672;10.064;2023-04-24T00:57:22;11.40;99.90
3275;DHT22;1649;53.672;10.064;2023-04-24T00:59:49;11.40;99.90
3275;DHT22;1649;53.672;10.064;2023-04-24T01:02:15;11.40;99.90
3275;DHT22;1649;53.672;10.064;2023-04-24T01:04:41;11.40;99.90
3275;DHT22;1649;53.672;10.064;2023-04-24T01:07:07;11.30;99.90
3275;DHT22;1649;53.672;10.064;2023-04-24T01:09:39;11.40;99.90
3275;DHT22;1649;53.672;10.064;2023-04-24T01:12:07;11.30;99.90
3275;DHT22;1649;53.672;10.064;2023-04-24T01:14:33;11.30;99.90
3275;DHT22;1649;53.672;10.064;2023-04-24T01:16:58;11.40;99.90
3275;DHT22;1649;53.672;10.064;2023-04-24T01:19:24;11.40;99.90
3275;DHT22;1649;53.672;10.064;2023-04-24T01:21:51;11.40;99.90
3275;DHT22;1649;53.672;10.064;2023-04-24T01:24:19;11.40;99.90
3275;DHT22;1649;53.672;10.064;2023-04-24T01:26:45;11.30;99.90
3275;DHT22;1649;53.672;10.064;2023-04-24T01:29:11;11.30;99.90
3275;DHT22;1649;53.672;10.064;2023-04-24T01:31:37;11.30;99.90
3275;DHT22;1649;53.672;10.064;2023-04-24T01:34:03;11.30;99.90
3275;DHT22;1649;53.672;10.064;2023-04-24T01:36:28;11.30;99.90
3275;DHT22;1649;53.672;10.064;2023-04-24T01:38:56;11.20;99.90
3275;DHT22;1649;53.672;10.064;2023-04-24T01:41:22;11.10;99.90
3275;DHT22;1649;53.672;10.064;2023-04-24T01:43:48;11.20;99.90
3275;DHT22;1649;53.672;10.064;2023-04-24T01:46:15;11.20;99.90
3275;DHT22;1649;53.672;10.064;2023-04-24T01:48:41;11.20;99.90
3275;DHT22;1649;53.672;10.064;2023-04-24T01:51:07;11.20;99.90
3275;DHT22;1649;53.672;10.064;2023-04-24T01:53:32;11.20;99.90
3275;DHT22;1649;53.672;10.064;2023-04-24T01:55:58;11.30;99.90
3275;DHT22;1649;53.672;10.064;2023-04-24T01:58:23;11.30;99.90
3275;DHT22;1649;53.672;10.064;2023-04-24T02:00:49;11.30;99.90
3275;DHT22;1649;53.672;10.064;2023-04-24T02:03:14;11.30;99.90
3275;DHT22;1649;53.672;10.064;2023-04-24T02:05:40;11.30;99.90
3275;DHT22;1649;53.672;10.064;2023-04-24T02:08:08;11.20;99.90
3275;DHT22;1649;53.672;10.064;2023-04-24T02:10:34;11.20;99.90
3275;DHT22;1649;53.672;10.064;2023-04-24T02:12:59;11.10;99.90
3275;DHT22;1649;53.672;10.064;2023-04-24T02:15:25;11.10;99.90
3275;DHT22;1649;53.672;10.064;2023-04-24T02:17:51;11.10;99.90
3275;DHT22;1649;53.672;10.064;2023-04-24T02:20:16;11.10;99.90
3275;DHT22;1649;53.672;10.064;2023-04-24T02:22:42;11.00;99.90
3275;DHT22;1649;53.672;10.064;2023-04-24T02:25:08;11.00;99.90
3275;DHT22;1649;53.672;10.064;2023-04-24T02:27:34;11.00;99.90
3275;DHT22;1649;53.672;10.064;2023-04-24T02:29:59;11.00;99.90
3275;DHT22;1649;53.672;10.064;2023-04-24T02:32:25;11.00;99.90
3275;DHT22;1649;53.672;10.064;2023-04-24T02:34:51;11.00;99.90
3275;DHT22;1649;53.672;10.064;2023-04-24T02:37:17;10.90;99.90
3275;DHT22;1649;53.672;10.064;2023-04-24T02:39:42;11.00;99.90
3275;DHT22;1649;53.672;10.064;2023-04-24T02:42:08;10.90;99.90
3275;DHT22;1649;53.672;10.064;2023-04-24T02:44:33;10.90;99.90
3275;DHT22;1649;53.672;10.064;2023-04-24T02:46:59;10.80;99.90
3275;DHT22;1649;53.672;10.064;2023-04-24T02:49:24;10.80;99.90
3275;DHT22;1649;53.672;10.064;2023-04-24T02:51:51;10.70;99.90
3275;DHT22;1649;53.672;10.064;2023-04-24T02:54:16;10.70;99.90
3275;DHT22;1649;53.672;10.064;2023-04-24T02:56:42;10.70;99.90
3275;DHT22;1649;53.672;10.064;2023-04-24T02:59:08;10.60;99.90
3275;DHT22;1649;53.672;10.064;2023-04-24T03:01:34;10.70;99.90
3275;DHT22;1649;53.672;10.064;2023-04-24T03:04:00;10.60;99.90
3275;DHT22;1649;53.672;10.064;2023-04-24T03:06:26;10.60;99.90
3275;DHT22;1649;53.672;10.064;2023-04-24T03:08:52;10.60;99.90
3275;DHT22;1649;53.672;10.064;2023-04-24T03:11:18;10.60;99.90
3275;DHT22;1649;53.672;10.064;2023-04-24T03:13:43;10.50;99.90
3275;DHT22;1649;53.672;10.064;2023-04-24T03:16:09;10.50;99.90
3275;DHT22;1649;53.672;10.064;2023-04-24T03:18:34;10.50;99.90
3275;DHT22;1649;53.672;10.064;2023-04-24T03:21:00;10.50;99.90
3275;DHT22;1649;53.672;10.064;2023-04-24T03:23:26;10.40;99.90
3275;DHT22;1649;53.672;10.064;2023-04-24T03:25:51;10.40;99.90
3275;DHT22;1649;53.672;10.064;2023-04-24T03:28:17;10.40;99.90
3275;DHT22;1649;53.672;10.064;2023-04-24T03:30:42;10.30;99.90
3275;DHT22;1649;53.672;10.064;2023-04-24T03:33:08;10.30;99.90
3275;DHT22;1649;53.672;10.064;2023-04-24T03:35:35;10.30;99.90
3275;DHT22;1649;53.672;10.064;2023-04-24T03:38:01;10.30;99.90
3275;DHT22;1649;53.672;10.064;2023-04-24T03:40:26;10.30;99.90
3275;DHT22;1649;53.672;10.064;2023-04-24T03:42:54;10.30;99.90
3275;DHT22;1649;53.672;10.064;2023-04-24T03:45:20;10.30;99.90
3275;DHT22;1649;53.672;10.064;2023-04-24T03:47:45;10.30;99.90
3275;DHT22;1649;53.672;10.064;2023-04-24T03:50:11;10.20;99.90
3275;DHT22;1649;53.672;10.064;2023-04-24T03:52:36;10.20;99.90
3275;DHT22;1649;53.672;10.064;2023-04-24T03:55:02;10.20;99.90
3275;DHT22;1649;53.672;10.064;2023-04-24T03:57:28;10.20;99.90
3275;DHT22;1649;53.672;10.064;2023-04-24T03:59:53;10.10;99.90
3275;DHT22;1649;53.672;10.064;2023-04-24T04:02:19;10.10;99.90
3275;DHT22;1649;53.672;10.064;2023-04-24T04:04:44;10.10;99.90
3275;DHT22;1649;53.672;10.064;2023-04-24T04:07:10;10.10;99.90
3275;DHT22;1649;53.672;10.064;2023-04-24T04:09:36;10.00;99.90
3275;DHT22;1649;53.672;10.064;2023-04-24T04:12:02;10.00;99.90
3275;DHT22;1649;53.672;10.064;2023-04-24T04:14:27;10.10;99.90
3275;DHT22;1649;53.672;10.064;2023-04-24T04:16:53;10.00;99.90
3275;DHT22;1649;53.672;10.064;2023-04-24T04:19:18;10.10;99.90
3275;DHT22;1649;53.672;10.064;2023-04-24T04:21:44;10.10;99.90
3275;DHT22;1649;53.672;10.064;2023-04-24T04:24:11;10.10;99.90
3275;DHT22;1649;53.672;10.064;2023-04-24T04:26:37;10.10;99.90
3275;DHT22;1649;53.672;10.064;2023-04-24T04:29:03;10.10;99.90
3275;DHT22;1649;53.672;10.064;2023-04-24T04:31:29;10.00;99.90
3275;DHT22;1649;53.672;10.064;2023-04-24T04:33:55;10.10;99.90
3275;DHT22;1649;53.672;10.064;2023-04-24T04:36:21;10.00;99.90
3275;DHT22;1649;53.672;10.064;2023-04-24T04:38:47;10.10;99.90
3275;DHT22;1649;53.672;10.064;2023-04-24T04:41:12;10.10;99.90
3275;DHT22;1649;53.672;10.064;2023-04-24T04:43:38;10.00;99.90
3275;DHT22;1649;53.672;10.064;2023-04-24T04:46:05;10.10;99.90
3275;DHT22;1649;53.672;10.064;2023-04-24T04:48:30;10.10;99.90
3275;DHT22;1649;53.672;10.064;2023-04-24T04:50:57;10.10;99.90
3275;DHT22;1649;53.672;10.064;2023-04-24T04:53:22;10.10;99.90
3275;DHT22;1649;53.672;10.064;2023-04-24T04:55:48;10.10;99.90
3275;DHT22;1649;53.672;10.064;2023-04-24T04:58:14;10.20;99.90
3275;DHT22;1649;53.672;10.064;2023-04-24T05:00:39;10.20;99.90
3275;DHT22;1649;53.672;10.064;2023-04-24T05:03:05;10.30;99.90
3275;DHT22;1649;53.672;10.064;2023-04-24T05:05:30;10.50;99.90
3275;DHT22;1649;53.672;10.064;2023-04-24T05:07:56;10.60;99.90
3275;DHT22;1649;53.672;10.064;2023-04-24T05:10:21;10.70;99.90
3275;DHT22;1649;53.672;10.064;2023-04-24T05:12:47;10.90;99.90
3275;DHT22;1649;53.672;10.064;2023-04-24T05:15:12;11.00;99.90
3275;DHT22;1649;53.672;10.064;2023-04-24T05:17:38;11.00;99.90
3275;DHT22;1649;53.672;10.064;2023-04-24T05:20:05;11.00;99.90
3275;DHT22;1649;53.672;10.064;2023-04-24T05:22:31;11.00;99.90
3275;DHT22;1649;53.672;10.064;2023-04-24T05:24:57;11.00;99.90
3275;DHT22;1649;53.672;10.064;2023-04-24T05:27:23;11.00;99.90
3275;DHT22;1649;53.672;10.064;2023-04-24T05:29:48;11.00;99.90
3275;DHT22;1649;53.672;10.064;2023-04-24T05:32:14;11.00;99.90
3275;DHT22;1649;53.672;10.064;2023-04-24T05:34:39;11.00;99.90
3275;DHT22;1649;53.672;10.064;2023-04-24T05:37:05;11.00;99.90
3275;DHT22;1649;53.672;10.064;2023-04-24T05:39:34;11.10;99.90
3275;DHT22;1649;53.672;10.064;2023-04-24T05:42:00;11.10;99.90
3275;DHT22;1649;53.672;10.064;2023-04-24T05:44:26;11.10;99.90
3275;DHT22;1649;53.672;10.064;2023-04-24T05:46:52;11.10;99.90
3275;DHT22;1649;53.672;10.064;2023-04-24T05:49:17;11.10;99.90
3275;DHT22;1649;53.672;10.064;2023-04-24T05:51:43;11.10;99.90
3275;DHT22;1649;53.672;10.064;2023-04-24T05:54:08;11.10;99.90
3275;DHT22;1649;53.672;10.064;2023-04-24T05:56:34;11.20;99.90
3275;DHT22;1649;53.672;10.064;2023-04-24T05:58:59;11.20;99.90
3275;DHT22;1649;53.672;10.064;2023-04-24T06:01:25;11.30;99.90
3275;DHT22;1649;53.672;10.064;2023-04-24T06:03:50;11.30;99.90
3275;DHT22;1649;53.672;10.064;2023-04-24T06:06:16;11.30;99.90
3275;DHT22;1649;53.672;10.064;2023-04-24T06:08:41;11.30;99.90
3275;DHT22;1649;53.672;10.064;2023-04-24T06:11:09;11.40;99.90
3275;DHT22;1649;53.672;10.064;2023-04-24T06:13:35;11.50;99.90
3275;DHT22;1649;53.672;10.064;2023-04-24T06:16:00;11.50;99.90
3275;DHT22;1649;53.672;10.064;2023-04-24T06:18:26;11.60;99.90
3275;DHT22;1649;53.672;10.064;2023-04-24T06:20:51;11.70;99.90
3275;DHT22;1649;53.672;10.064;2023-04-24T06:23:17;11.80;99.90
3275;DHT22;1649;53.672;10.064;2023-04-24T06:25:42;11.80;99.90
3275;DHT22;1649;53.672;10.064;2023-04-24T06:28:08;12.10;99.90
3275;DHT22;1649;53.672;10.064;2023-04-24T06:30:33;12.60;99.90
3275;DHT22;1649;53.672;10.064;2023-04-24T06:32:59;13.00;99.90
3275;DHT22;1649;53.672;10.064;2023-04-24T06:35:24;13.10;99.90
3275;DHT22;1649;53.672;10.064;2023-04-24T06:37:50;13.50;99.90
3275;DHT22;1649;53.672;10.064;2023-04-24T06:40:16;14.00;99.90
3275;DHT22;1649;53.672;10.064;2023-04-24T06:42:43;14.40;99.90
3275;DHT22;1649;53.672;10.064;2023-04-24T06:45:09;15.10;99.90
3275;DHT22;1649;53.672;10.064;2023-04-24T06:47:35;15.40;99.90
3275;DHT22;1649;53.672;10.064;2023-04-24T06:50:01;15.80;99.90
3275;DHT22;1649;53.672;10.064;2023-04-24T06:52:26;15.50;99.90
3275;DHT22;1649;53.672;10.064;2023-04-24T06:54:52;15.40;99.90
3275;DHT22;1649;53.672;10.064;2023-04-24T06:57:18;15.80;99.90
3275;DHT22;1649;53.672;10.064;2023-04-24T06:59:44;15.90;99.90
3275;DHT22;1649;53.672;10.064;2023-04-24T07:02:10;16.00;99.90
3275;DHT22;1649;53.672;10.064;2023-04-24T07:04:35;16.00;99.90
3275;DHT22;1649;53.672;10.064;2023-04-24T07:07:02;15.60;99.90
3275;DHT22;1649;53.672;10.064;2023-04-24T07:09:27;16.20;99.90
3275;DHT22;1649;53.672;10.064;2023-04-24T07:11:53;16.00;99.90
3275;DHT22;1649;53.672;10.064;2023-04-24T07:14:19;15.40;99.90
3275;DHT22;1649;53.672;10.064;2023-04-24T07:16:45;15.30;99.90
3275;DHT22;1649;53.672;10.064;2023-04-24T07:19:12;15.70;99.90
3275;DHT22;1649;53.672;10.064;2023-04-24T07:21:37;16.60;99.90
3275;DHT22;1649;53.672;10.064;2023-04-24T07:24:03;16.90;98.60
3275;DHT22;1649;53.672;10.064;2023-04-24T07:26:29;16.20;98.20
3275;DHT22;1649;53.672;10.064;2023-04-24T07:28:55;15.30;99.70
3275;DHT22;1649;53.672;10.064;2023-04-24T07:31:21;14.70;99.90
3275;DHT22;1649;53.672;10.064;2023-04-24T07:33:47;14.30;99.90
3275;DHT22;1649;53.672;10.064;2023-04-24T07:36:13;14.10;99.90
3275;DHT22;1649;53.672;10.064;2023-04-24T07:38:42;14.00;99.90
3275;DHT22;1649;53.672;10.064;2023-04-24T07:41:08;14.50;99.90
3275;DHT22;1649;53.672;10.064;2023-04-24T07:43:33;14.60;99.90
3275;DHT22;1649;53.672;10.064;2023-04-24T07:45:59;14.70;99.90
3275;DHT22;1649;53.672;10.064;2023-04-24T07:48:25;14.60;99.90
3275;DHT22;1649;53.672;10.064;2023-04-24T07:50:52;15.10;99.90
3275;DHT22;1649;53.672;10.064;2023-04-24T07:53:17;15.80;99.90
3275;DHT22;1649;53.672;10.064;2023-04-24T07:55:43;16.10;99.90
3275;DHT22;1649;53.672;10.064;2023-04-24T07:58:08;16.30;99.90
3275;DHT22;1649;53.672;10.064;2023-04-24T08:00:34;16.90;99.90
3275;DHT22;1649;53.672;10.064;2023-04-24T08:03:00;17.20;99.50
3275;DHT22;1649;53.672;10.064;2023-04-24T08:05:25;17.20;97.60
3275;DHT22;1649;53.672;10.064;2023-04-24T08:07:52;16.70;98.50
3275;DHT22;1649;53.672;10.064;2023-04-24T08:10:18;15.90;99.90
3275;DHT22;1649;53.672;10.064;2023-04-24T08:12:43;15.20;99.90
3275;DHT22;1649;53.672;10.064;2023-04-24T08:15:09;14.80;99.90
3275;DHT22;1649;53.672;10.064;2023-04-24T08:17:35;14.50;99.90
3275;DHT22;1649;53.672;10.064;2023-04-24T08:20:02;14.10;99.90
3275;DHT22;1649;53.672;10.064;2023-04-24T08:22:28;13.90;99.90
3275;DHT22;1649;53.672;10.064;2023-04-24T08:24:54;14.00;99.90
3275;DHT22;1649;53.672;10.064;2023-04-24T08:27:19;14.80;99.90
3275;DHT22;1649;53.672;10.064;2023-04-24T08:29:45;15.70;99.90
3275;DHT22;1649;53.672;10.064;2023-04-24T08:32:10;16.40;99.90
3275;DHT22;1649;53.672;10.064;2023-04-24T08:34:36;16.20;98.60
3275;DHT22;1649;53.672;10.064;2023-04-24T08:37:02;15.60;99.60
3275;DHT22;1649;53.672;10.064;2023-04-24T08:39:28;15.20;99.90
3275;DHT22;1649;53.672;10.064;2023-04-24T08:41:54;14.90;99.90
3275;DHT22;1649;53.672;10.064;2023-04-24T08:44:20;14.40;99.90
3275;DHT22;1649;53.672;10.064;2023-04-24T08:46:47;14.00;99.90
3275;DHT22;1649;53.672;10.064;2023-04-24T08:49:14;13.90;99.90
3275;DHT22;1649;53.672;10.064;2023-04-24T08:51:41;13.90;99.90
3275;DHT22;1649;53.672;10.064;2023-04-24T08:54:07;13.70;99.90
3275;DHT22;1649;53.672;10.064;2023-04-24T08:56:34;13.60;99.90
3275;DHT22;1649;53.672;10.064;2023-04-24T08:59:04;13.50;99.90
3275;DHT22;1649;53.672;10.064;2023-04-24T09:01:32;13.50;99.90
3275;DHT22;1649;53.672;10.064;2023-04-24T09:04:02;13.60;99.90
3275;DHT22;1649;53.672;10.064;2023-04-24T09:06:28;13.40;99.90
3275;DHT22;1649;53.672;10.064;2023-04-24T09:08:54;13.30;99.90
3275;DHT22;1649;53.672;10.064;2023-04-24T09:11:19;13.40;99.90
3275;DHT22;1649;53.672;10.064;2023-04-24T09:13:45;13.60;99.90
3275;DHT22;1649;53.672;10.064;2023-04-24T09:16:11;13.90;99.90
3275;DHT22;1649;53.672;10.064;2023-04-24T09:18:37;14.00;99.90
3275;DHT22;1649;53.672;10.064;2023-04-24T09:21:06;13.90;99.90
3275;DHT22;1649;53.672;10.064;2023-04-24T09:23:32;13.90;99.90
3275;DHT22;1649;53.672;10.064;2023-04-24T09:26:00;13.80;99.90
3275;DHT22;1649;53.672;10.064;2023-04-24T09:28:36;13.90;99.90
3275;DHT22;1649;53.672;10.064;2023-04-24T09:31:08;14.10;99.90
3275;DHT22;1649;53.672;10.064;2023-04-24T09:33:34;14.20;99.90
3275;DHT22;1649;53.672;10.064;2023-04-24T09:36:00;14.70;99.90
3275;DHT22;1649;53.672;10.064;2023-04-24T09:38:37;14.70;99.90
3275;DHT22;1649;53.672;10.064;2023-04-24T09:41:05;14.60;99.90
3275;DHT22;1649;53.672;10.064;2023-04-24T09:43:31;14.40;99.90
3275;DHT22;1649;53.672;10.064;2023-04-24T09:45:58;14.20;99.90
3275;DHT22;1649;53.672;10.064;2023-04-24T09:48:34;14.10;99.90
3275;DHT22;1649;53.672;10.064;2023-04-24T09:51:04;14.00;99.90
3275;DHT22;1649;53.672;10.064;2023-04-24T09:53:32;13.90;99.90
3275;DHT22;1649;53.672;10.064;2023-04-24T09:56:10;13.80;99.90
3275;DHT22;1649;53.672;10.064;2023-04-24T09:58:38;13.90;99.90
3275;DHT22;1649;53.672;10.064;2023-04-24T10:01:04;13.90;99.90
3275;DHT22;1649;53.672;10.064;2023-04-24T10:03:31;13.80;99.90
3275;DHT22;1649;53.672;10.064;2023-04-24T10:06:01;13.60;99.90
3275;DHT22;1649;53.672;10.064;2023-04-24T10:08:26;13.40;99.90
3275;DHT22;1649;53.672;10.064;2023-04-24T10:10:58;13.40;99.90
3275;DHT22;1649;53.672;10.064;2023-04-24T10:13:25;13.40;99.90
3275;DHT22;1649;53.672;10.064;2023-04-24T10:15:51;13.30;99.90
3275;DHT22;1649;53.672;10.064;2023-04-24T10:18:17;13.40;99.90
3275;DHT22;1649;53.672;10.064;2023-04-24T10:20:43;13.40;99.90
3275;DHT22;1649;53.672;10.064;2023-04-24T10:23:08;13.50;99.90
3275;DHT22;1649;53.672;10.064;2023-04-24T10:25:35;13.40;99.90
3275;DHT22;1649;53.672;10.064;2023-04-24T10:28:02;13.40;99.90
3275;DHT22;1649;53.672;10.064;2023-04-24T10:30:30;13.50;99.90
3275;DHT22;1649;53.672;10.064;2023-04-24T10:33:03;13.40;99.90
3275;DHT22;1649;53.672;10.064;2023-04-24T10:35:36;13.50;99.90
3275;DHT22;1649;53.672;10.064;2023-04-24T10:38:06;13.50;99.90
3275;DHT22;1649;53.672;10.064;2023-04-24T10:40:34;13.40;99.90
3275;DHT22;1649;53.672;10.064;2023-04-24T10:43:04;13.50;99.90
3275;DHT22;1649;53.672;10.064;2023-04-24T10:45:35;13.50;99.90
3275;DHT22;1649;53.672;10.064;2023-04-24T10:48:08;13.70;99.90
3275;DHT22;1649;53.672;10.064;2023-04-24T10:50:51;13.90;99.90
3275;DHT22;1649;53.672;10.064;2023-04-24T10:53:19;14.00;99.90
3275;DHT22;1649;53.672;10.064;2023-04-24T10:56:07;14.10;99.90
3275;DHT22;1649;53.672;10.064;2023-04-24T10:58:42;14.00;99.90
3275;DHT22;1649;53.672;10.064;2023-04-24T11:01:31;14.00;99.90
3275;DHT22;1649;53.672;10.064;2023-04-24T11:03:59;14.10;99.90
3275;DHT22;1649;53.672;10.064;2023-04-24T11:06:32;14.10;99.90
3275;DHT22;1649;53.672;10.064;2023-04-24T11:09:10;14.20;99.90
3275;DHT22;1649;53.672;10.064;2023-04-24T11:11:43;14.00;99.90
3275;DHT22;1649;53.672;10.064;2023-04-24T11:14:09;13.90;99.90
3275;DHT22;1649;53.672;10.064;2023-04-24T11:19:18;13.60;99.90
3275;DHT22;1649;53.672;10.064;2023-04-24T11:21:49;13.50;99.90
3275;DHT22;1649;53.672;10.064;2023-04-24T11:27:01;14.10;99.90
3275;DHT22;1649;53.672;10.064;2023-04-24T11:29:41;14.60;99.90
3275;DHT22;1649;53.672;10.064;2023-04-24T11:34:41;14.80;99.90
3275;DHT22;1649;53.672;10.064;2023-04-24T11:37:06;15.10;99.90
3275;DHT22;1649;53.672;10.064;2023-04-24T11:39:36;15.20;99.90
3275;DHT22;1649;53.672;10.064;2023-04-24T11:42:03;15.20;99.90
3275;DHT22;1649;53.672;10.064;2023-04-24T11:44:29;15.30;99.90
3275;DHT22;1649;53.672;10.064;2023-04-24T11:46:56;15.30;99.90
3275;DHT22;1649;53.672;10.064;2023-04-24T11:49:22;15.50;99.90
3275;DHT22;1649;53.672;10.064;2023-04-24T11:51:47;15.60;98.60
3275;DHT22;1649;53.672;10.064;2023-04-24T11:54:13;15.60;99.90
3275;DHT22;1649;53.672;10.064;2023-04-24T11:56:38;15.60;98.60
3275;DHT22;1649;53.672;10.064;2023-04-24T11:59:04;15.50;99.40
3275;DHT22;1649;53.672;10.064;2023-04-24T12:01:29;15.40;99.90
3275;DHT22;1649;53.672;10.064;2023-04-24T12:04:00;15.20;99.90
3275;DHT22;1649;53.672;10.064;2023-04-24T12:06:26;15.10;99.80
3275;DHT22;1649;53.672;10.064;2023-04-24T12:08:52;15.20;99.90
3275;DHT22;1649;53.672;10.064;2023-04-24T12:11:17;15.00;99.90
3275;DHT22;1649;53.672;10.064;2023-04-24T12:13:44;14.90;99.90
3275;DHT22;1649;53.672;10.064;2023-04-24T12:16:10;14.70;99.90
3275;DHT22;1649;53.672;10.064;2023-04-24T12:18:44;14.50;99.90
3275;DHT22;1649;53.672;10.064;2023-04-24T12:21:21;14.50;99.90
3275;DHT22;1649;53.672;10.064;2023-04-24T12:23:47;14.40;99.90
3275;DHT22;1649;53.672;10.064;2023-04-24T12:26:19;14.20;99.90
3275;DHT22;1649;53.672;10.064;2023-04-24T12:28:49;14.20;99.90
3275;DHT22;1649;53.672;10.064;2023-04-24T12:31:21;14.30;99.90
3275;DHT22;1649;53.672;10.064;2023-04-24T12:33:46;14.50;99.90
3275;DHT22;1649;53.672;10.064;2023-04-24T12:36:12;14.70;99.90
3275;DHT22;1649;53.672;10.064;2023-04-24T12:38:38;14.80;99.90
3275;DHT22;1649;53.672;10.064;2023-04-24T12:41:11;14.80;99.90
3275;DHT22;1649;53.672;10.064;2023-04-24T12:43:37;14.60;99.90
3275;DHT22;1649;53.672;10.064;2023-04-24T12:46:03;14.30;99.90
3275;DHT22;1649;53.672;10.064;2023-04-24T12:48:29;13.90;99.90
3275;DHT22;1649;53.672;10.064;2023-04-24T12:50:56;13.70;99.90
3275;DHT22;1649;53.672;10.064;2023-04-24T12:53:22;13.40;99.90
3275;DHT22;1649;53.672;10.064;2023-04-24T12:55:47;13.40;99.90
3275;DHT22;1649;53.672;10.064;2023-04-24T12:58:19;13.40;99.90
3275;DHT22;1649;53.672;10.064;2023-04-24T13:00:45;13.40;99.90
3275;DHT22;1649;53.672;10.064;2023-04-24T13:03:11;13.50;99.90
3275;DHT22;1649;53.672;10.064;2023-04-24T13:05:37;13.60;99.90
3275;DHT22;1649;53.672;10.064;2023-04-24T13:08:02;13.60;99.90
3275;DHT22;1649;53.672;10.064;2023-04-24T13:10:28;13.60;99.90
3275;DHT22;1649;53.672;10.064;2023-04-24T13:12:53;13.50;99.90
3275;DHT22;1649;53.672;10.064;2023-04-24T13:15:19;13.40;99.90
3275;DHT22;1649;53.672;10.064;2023-04-24T13:17:45;13.20;99.90
3275;DHT22;1649;53.672;10.064;2023-04-24T13:20:10;13.00;99.90
3275;DHT22;1649;53.672;10.064;2023-04-24T13:22:36;12.90;99.90
3275;DHT22;1649;53.672;10.064;2023-04-24T13:25:02;12.80;99.90
3275;DHT22;1649;53.672;10.064;2023-04-24T13:27:28;12.70;99.90
3275;DHT22;1649;53.672;10.064;2023-04-24T13:29:53;12.80;99.90
3275;DHT22;1649;53.672;10.064;2023-04-24T13:32:19;12.80;99.90
3275;DHT22;1649;53.672;10.064;2023-04-24T13:34:44;12.90;99.90
3275;DHT22;1649;53.672;10.064;2023-04-24T13:37:10;12.90;99.90
3275;DHT22;1649;53.672;10.064;2023-04-24T13:39:36;13.10;99.90
3275;DHT22;1649;53.672;10.064;2023-04-24T13:42:01;13.20;99.90
3275;DHT22;1649;53.672;10.064;2023-04-24T13:44:27;13.20;99.90
3275;DHT22;1649;53.672;10.064;2023-04-24T13:46:54;13.10;99.90
3275;DHT22;1649;53.672;10.064;2023-04-24T13:49:23;13.00;99.90
3275;DHT22;1649;53.672;10.064;2023-04-24T13:51:51;13.00;99.90
3275;DHT22;1649;53.672;10.064;2023-04-24T13:54:16;12.90;99.90
3275;DHT22;1649;53.672;10.064;2023-04-24T13:56:42;12.80;99.90
3275;DHT22;1649;53.672;10.064;2023-04-24T13:59:08;12.60;99.90
3275;DHT22;1649;53.672;10.064;2023-04-24T14:01:34;12.60;99.90
3275;DHT22;1649;53.672;10.064;2023-04-24T14:03:59;12.60;99.90
3275;DHT22;1649;53.672;10.064;2023-04-24T14:06:25;12.60;99.90
3275;DHT22;1649;53.672;10.064;2023-04-24T14:08:51;12.60;99.90
3275;DHT22;1649;53.672;10.064;2023-04-24T14:11:17;12.60;99.90
3275;DHT22;1649;53.672;10.064;2023-04-24T14:13:44;12.60;99.90
3275;DHT22;1649;53.672;10.064;2023-04-24T14:16:10;12.70;99.90
3275;DHT22;1649;53.672;10.064;2023-04-24T14:18:36;12.80;99.90
3275;DHT22;1649;53.672;10.064;2023-04-24T14:21:02;12.80;99.90
3275;DHT22;1649;53.672;10.064;2023-04-24T14:23:27;12.70;99.90
3275;DHT22;1649;53.672;10.064;2023-04-24T14:25:53;12.60;99.90
3275;DHT22;1649;53.672;10.064;2023-04-24T14:28:19;12.50;99.90
3275;DHT22;1649;53.672;10.064;2023-04-24T14:30:45;12.50;99.90
3275;DHT22;1649;53.672;10.064;2023-04-24T14:33:11;12.40;99.90
3275;DHT22;1649;53.672;10.064;2023-04-24T14:35:38;12.30;99.90
3275;DHT22;1649;53.672;10.064;2023-04-24T14:38:03;12.30;99.90
3275;DHT22;1649;53.672;10.064;2023-04-24T14:40:29;12.30;99.90
3275;DHT22;1649;53.672;10.064;2023-04-24T14:42:56;12.20;99.90
3275;DHT22;1649;53.672;10.064;2023-04-24T14:45:23;12.10;99.90
3275;DHT22;1649;53.672;10.064;2023-04-24T14:47:48;11.90;99.90
3275;DHT22;1649;53.672;10.064;2023-04-24T14:50:14;11.70;99.90
3275;DHT22;1649;53.672;10.064;2023-04-24T14:52:40;11.30;99.90
3275;DHT22;1649;53.672;10.064;2023-04-24T14:55:05;10.90;99.90
3275;DHT22;1649;53.672;10.064;2023-04-24T14:57:32;10.50;99.90
3275;DHT22;1649;53.672;10.064;2023-04-24T14:59:58;10.20;99.90
3275;DHT22;1649;53.672;10.064;2023-04-24T15:02:23;10.20;99.90
3275;DHT22;1649;53.672;10.064;2023-04-24T15:04:48;10.10;99.90
3275;DHT22;1649;53.672;10.064;2023-04-24T15:07:14;10.10;99.90
3275;DHT22;1649;53.672;10.064;2023-04-24T15:09:40;10.00;99.90
3275;DHT22;1649;53.672;10.064;2023-04-24T15:12:05;10.10;99.90
3275;DHT22;1649;53.672;10.064;2023-04-24T15:14:31;10.10;99.90
3275;DHT22;1649;53.672;10.064;2023-04-24T15:16:56;10.00;99.90
3275;DHT22;1649;53.672;10.064;2023-04-24T15:19:22;10.00;99.90
3275;DHT22;1649;53.672;10.064;2023-04-24T15:21:47;10.00;99.90
3275;DHT22;1649;53.672;10.064;2023-04-24T15:24:13;10.00;99.90
3275;DHT22;1649;53.672;10.064;2023-04-24T15:26:38;10.00;99.90
3275;DHT22;1649;53.672;10.064;2023-04-24T15:29:04;10.10;99.90
3275;DHT22;1649;53.672;10.064;2023-04-24T15:31:29;10.10;99.90
3275;DHT22;1649;53.672;10.064;2023-04-24T15:33:55;10.10;99.90
3275;DHT22;1649;53.672;10.064;2023-04-24T15:36:20;10.10;99.90
3275;DHT22;1649;53.672;10.064;2023-04-24T15:38:46;10.10;99.90
3275;DHT22;1649;53.672;10.064;2023-04-24T15:41:12;10.00;99.90
3275;DHT22;1649;53.672;10.064;2023-04-24T15:43:38;10.00;99.90
3275;DHT22;1649;53.672;10.064;2023-04-24T15:46:05;9.70;99.90
3275;DHT22;1649;53.672;10.064;2023-04-24T15:48:31;9.60;99.90
3275;DHT22;1649;53.672;10.064;2023-04-24T15:50:57;9.60;99.90